createdAt,value
2019-02-20T00:01:13.160Z,8.77
2019-02-20T00:03:42.498Z,8.67
2019-02-20T00:06:11.813Z,7.87
2019-02-20T00:08:41.076Z,9.10
2019-02-20T00:11:10.367Z,8.07
2019-02-20T00:13:39.968Z,7.17
2019-02-20T00:16:09.300Z,8.37
2019-02-20T00:18:38.544Z,8.80
2019-02-20T00:21:07.735Z,8.00
2019-02-20T00:23:36.971Z,8.40
2019-02-20T00:26:06.250Z,8.13
2019-02-20T00:28:35.415Z,8.33
2019-02-20T00:31:04.691Z,9.10
2019-02-20T00:33:34.048Z,10.37
2019-02-20T00:36:03.374Z,8.60
2019-02-20T00:38:32.608Z,8.60
2019-02-20T00:41:01.883Z,7.80
2019-02-20T00:43:31.116Z,8.47
2019-02-20T00:46:14.726Z,8.50
2019-02-20T00:48:49.131Z,7.90
2019-02-20T00:51:40.247Z,8.27
2019-02-20T00:54:09.565Z,7.83
2019-02-20T00:56:39.206Z,8.17
2019-02-20T00:59:08.424Z,7.87
2019-02-20T01:01:37.673Z,7.13
2019-02-20T01:04:06.852Z,7.50
2019-02-20T01:06:36.176Z,7.40
2019-02-20T01:09:07.211Z,7.57
2019-02-20T01:11:36.459Z,7.50
2019-02-20T01:14:05.720Z,7.50
2019-02-20T01:16:34.938Z,8.03
2019-02-20T01:19:04.238Z,8.40
2019-02-20T01:21:33.602Z,7.67
2019-02-20T01:24:02.875Z,7.10
2019-02-20T01:26:32.190Z,8.53
2019-02-20T01:29:01.471Z,8.43
2019-02-20T01:31:30.619Z,9.00
2019-02-20T01:33:59.803Z,8.70
2019-02-20T01:36:29.042Z,9.30
2019-02-20T01:38:58.290Z,9.13
2019-02-20T01:41:27.451Z,8.70
2019-02-20T01:43:56.669Z,8.50
2019-02-20T01:46:25.963Z,8.60
2019-02-20T01:48:55.196Z,7.50
2019-02-20T01:51:24.349Z,7.50
2019-02-20T01:53:53.528Z,8.47
2019-02-20T01:56:22.838Z,7.33
2019-02-20T01:58:52.101Z,7.23
2019-02-20T02:01:21.259Z,7.40
2019-02-20T02:03:50.408Z,7.37
2019-02-20T02:06:19.679Z,6.97
2019-02-20T02:08:48.931Z,7.77
2019-02-20T02:11:18.248Z,7.23
2019-02-20T02:13:47.531Z,7.53
2019-02-20T02:16:16.860Z,7.77
2019-02-20T02:18:46.099Z,6.97
2019-02-20T02:21:15.363Z,6.93
2019-02-20T02:23:44.604Z,7.50
2019-02-20T02:26:13.951Z,8.37
2019-02-20T02:28:43.188Z,7.77
2019-02-20T02:31:12.516Z,7.60
2019-02-20T02:33:41.691Z,7.23
2019-02-20T02:36:10.952Z,7.70
2019-02-20T02:38:40.190Z,7.77
2019-02-20T02:41:09.388Z,6.73
2019-02-20T02:43:38.655Z,7.43
2019-02-20T02:46:07.908Z,7.90
2019-02-20T02:48:37.172Z,9.97
2019-02-20T02:51:06.514Z,21.73
2019-02-20T02:53:35.677Z,19.87
2019-02-20T02:56:04.941Z,15.60
2019-02-20T02:58:34.186Z,12.37
2019-02-20T03:01:03.497Z,12.57
2019-02-20T03:03:32.851Z,11.03
2019-02-20T03:06:02.093Z,17.90
2019-02-20T03:08:31.322Z,22.77
2019-02-20T03:11:00.483Z,21.13
2019-02-20T03:13:29.750Z,13.87
2019-02-20T03:15:58.989Z,11.13
2019-02-20T03:18:28.324Z,10.20
2019-02-20T03:20:57.565Z,12.60
2019-02-20T03:23:26.891Z,15.53
2019-02-20T03:25:56.128Z,11.27
2019-02-20T03:28:25.311Z,10.40
2019-02-20T03:30:54.541Z,9.57
2019-02-20T03:33:23.813Z,8.27
2019-02-20T03:35:53.156Z,8.20
2019-02-20T03:38:30.075Z,7.87
2019-02-20T03:40:53.312Z,8.37
2019-02-20T03:43:22.617Z,8.67
2019-02-20T03:45:51.848Z,8.73
2019-02-20T03:48:21.064Z,9.10
2019-02-20T03:50:50.309Z,9.13
2019-02-20T03:53:19.545Z,9.40
2019-02-20T03:55:48.802Z,9.43
2019-02-20T03:58:18.129Z,8.93
2019-02-20T04:00:47.296Z,10.53
2019-02-20T04:03:16.548Z,10.47
2019-02-20T04:05:45.812Z,10.60
2019-02-20T04:08:14.992Z,10.57
2019-02-20T04:10:44.259Z,11.43
2019-02-20T04:13:13.549Z,10.33
2019-02-20T04:15:42.730Z,10.37
2019-02-20T04:18:11.960Z,11.10
2019-02-20T04:20:41.251Z,10.60
2019-02-20T04:23:10.409Z,11.80
2019-02-20T04:25:39.747Z,11.33
2019-02-20T04:28:09.059Z,11.20
2019-02-20T04:30:38.316Z,11.03
2019-02-20T04:33:07.557Z,11.97
2019-02-20T04:35:36.837Z,10.40
2019-02-20T04:38:06.128Z,12.07
2019-02-20T04:40:35.318Z,12.83
2019-02-20T04:43:04.584Z,13.43
2019-02-20T04:45:33.777Z,13.23
2019-02-20T04:48:03.140Z,13.37
2019-02-20T04:50:32.393Z,13.17
2019-02-20T04:53:01.627Z,13.43
2019-02-20T04:55:30.891Z,13.07
2019-02-20T04:58:25.132Z,13.67
2019-02-20T05:00:54.320Z,12.70
2019-02-20T05:03:23.483Z,12.83
2019-02-20T05:05:52.747Z,14.47
2019-02-20T05:08:21.978Z,15.97
2019-02-20T05:10:51.242Z,13.90
2019-02-20T05:13:20.549Z,12.93
2019-02-20T05:15:51.358Z,12.57
2019-02-20T05:18:20.629Z,14.00
2019-02-20T05:20:49.963Z,14.83
2019-02-20T05:23:19.156Z,13.97
2019-02-20T05:25:48.453Z,13.70
2019-02-20T05:28:17.657Z,12.77
2019-02-20T05:30:46.908Z,13.33
2019-02-20T05:33:16.087Z,12.33
2019-02-20T05:35:45.372Z,13.50
2019-02-20T05:38:14.712Z,13.33
2019-02-20T05:40:43.991Z,13.03
2019-02-20T05:43:13.256Z,14.57
2019-02-20T05:45:42.484Z,14.60
2019-02-20T05:48:11.854Z,13.83
2019-02-20T05:50:41.093Z,15.17
2019-02-20T05:53:10.351Z,12.67
2019-02-20T05:55:39.514Z,13.43
2019-02-20T05:58:08.856Z,13.10
2019-02-20T06:00:49.124Z,13.73
2019-02-20T06:03:09.696Z,13.63
2019-02-20T06:05:38.930Z,14.27
2019-02-20T06:08:08.201Z,14.10
2019-02-20T06:10:37.487Z,15.00
2019-02-20T06:13:06.820Z,15.47
2019-02-20T06:15:35.993Z,15.10
2019-02-20T06:18:05.278Z,16.57
2019-02-20T06:20:34.579Z,14.83
2019-02-20T06:23:03.849Z,16.20
2019-02-20T06:25:33.153Z,16.90
2019-02-20T06:28:02.386Z,16.03
2019-02-20T06:30:31.568Z,17.13
2019-02-20T06:33:00.718Z,17.57
2019-02-20T06:35:30.087Z,16.83
2019-02-20T06:37:59.328Z,17.17
2019-02-20T06:40:28.520Z,16.00
2019-02-20T06:42:57.775Z,16.10
2019-02-20T06:45:26.971Z,17.13
2019-02-20T06:47:56.223Z,16.10
2019-02-20T06:50:25.483Z,17.27
2019-02-20T06:52:54.644Z,15.67
2019-02-20T06:55:23.933Z,16.43
2019-02-20T06:57:53.171Z,19.10
2019-02-20T07:00:22.520Z,16.10
2019-02-20T07:02:51.744Z,17.80
2019-02-20T07:05:34.850Z,18.10
2019-02-20T07:08:45.257Z,16.83
2019-02-20T07:11:43.977Z,16.70
2019-02-20T07:14:49.011Z,16.60
2019-02-20T07:17:47.962Z,17.10
2019-02-20T07:20:49.944Z,17.43
2019-02-20T07:23:46.840Z,18.00
2019-02-20T07:26:47.420Z,17.53
2019-02-20T07:29:44.332Z,17.43
2019-02-20T07:32:16.492Z,18.43
2019-02-20T07:34:45.734Z,18.37
2019-02-20T07:37:14.997Z,19.40
2019-02-20T07:39:45.082Z,32.07
2019-02-20T07:42:14.269Z,20.30
2019-02-20T07:44:43.603Z,16.20
2019-02-20T07:47:13.027Z,18.73
2019-02-20T07:49:42.214Z,17.13
2019-02-20T07:52:11.479Z,18.47
2019-02-20T07:54:40.712Z,16.90
2019-02-20T07:57:10.050Z,18.43
2019-02-20T07:59:39.202Z,14.90
2019-02-20T08:02:08.434Z,18.97
2019-02-20T08:04:37.678Z,18.17
2019-02-20T08:07:07.260Z,14.87
2019-02-20T08:09:36.701Z,16.77
2019-02-20T08:12:05.974Z,16.70
2019-02-20T08:14:35.147Z,14.87
2019-02-20T08:17:04.493Z,17.83
2019-02-20T08:19:33.727Z,18.03
2019-02-20T08:22:03.128Z,17.47
2019-02-20T08:24:32.362Z,16.53
2019-02-20T08:27:01.596Z,17.40
2019-02-20T08:29:31.180Z,15.17
2019-02-20T08:32:00.331Z,17.77
2019-02-20T08:34:29.516Z,20.70
2019-02-20T08:36:58.701Z,23.93
2019-02-20T08:39:28.003Z,17.97
2019-02-20T08:41:57.245Z,18.43
2019-02-20T08:44:26.499Z,17.30
2019-02-20T08:46:55.807Z,17.90
2019-02-20T08:49:25.028Z,16.17
2019-02-20T08:51:54.246Z,16.63
2019-02-20T08:54:23.555Z,19.27
2019-02-20T08:56:52.707Z,14.40
2019-02-20T08:59:21.896Z,17.07
2019-02-20T09:01:51.137Z,17.57
2019-02-20T09:04:20.468Z,14.10
2019-02-20T09:06:49.697Z,15.87
2019-02-20T09:09:18.954Z,16.60
2019-02-20T09:11:48.179Z,15.73
2019-02-20T09:14:17.507Z,16.57
2019-02-20T09:16:46.695Z,14.77
2019-02-20T09:19:16.203Z,16.57
2019-02-20T09:21:45.427Z,14.77
2019-02-20T09:24:14.654Z,16.90
2019-02-20T09:26:43.917Z,17.07
2019-02-20T09:29:13.199Z,15.70
2019-02-20T09:31:42.447Z,18.40
2019-02-20T09:34:11.673Z,17.53
2019-02-20T09:36:40.944Z,14.60
2019-02-20T09:39:30.144Z,16.43
2019-02-20T09:42:00.378Z,14.10
2019-02-20T09:44:31.796Z,15.93
2019-02-20T09:47:00.987Z,13.77
2019-02-20T09:49:30.375Z,15.93
2019-02-20T09:51:59.713Z,14.37
2019-02-20T09:54:28.867Z,15.97
2019-02-20T09:56:58.391Z,13.37
2019-02-20T09:59:27.686Z,15.83
2019-02-20T10:01:56.942Z,12.90
2019-02-20T10:04:26.180Z,15.37
2019-02-20T10:06:55.363Z,13.10
2019-02-20T10:09:24.895Z,13.57
2019-02-20T10:11:54.161Z,16.47
2019-02-20T10:14:23.408Z,13.40
2019-02-20T10:16:54.018Z,16.27
2019-02-20T10:19:23.433Z,16.17
2019-02-20T10:21:52.751Z,14.65
2019-02-20T10:24:21.984Z,14.20
2019-02-20T10:26:58.605Z,14.60
2019-02-20T10:29:22.181Z,12.60
2019-02-20T10:31:51.459Z,13.27
2019-02-20T10:34:20.676Z,13.80
2019-02-20T10:36:49.913Z,14.63
2019-02-20T10:39:19.176Z,13.97
2019-02-20T10:41:48.494Z,13.47
2019-02-20T10:44:17.832Z,14.40
2019-02-20T10:46:47.056Z,14.63
2019-02-20T10:49:16.415Z,14.03
2019-02-20T10:51:45.646Z,13.93
2019-02-20T10:54:14.916Z,14.67
2019-02-20T10:56:44.144Z,14.37
2019-02-20T10:59:13.458Z,14.40
2019-02-20T11:01:42.619Z,14.73
2019-02-20T11:04:11.899Z,15.07
2019-02-20T11:06:41.169Z,15.63
2019-02-20T11:09:10.419Z,14.80
2019-02-20T11:11:39.733Z,15.40
2019-02-20T11:14:08.920Z,15.50
2019-02-20T11:16:38.224Z,16.63
2019-02-20T11:19:07.508Z,16.30
2019-02-20T11:21:36.704Z,15.53
2019-02-20T11:24:05.888Z,16.57
2019-02-20T11:26:46.069Z,16.27
2019-02-20T11:29:05.960Z,15.83
2019-02-20T11:31:35.203Z,15.80
2019-02-20T11:34:04.456Z,15.50
2019-02-20T11:36:33.723Z,15.73
2019-02-20T11:39:04.277Z,16.10
2019-02-20T11:41:33.536Z,16.20
2019-02-20T11:44:02.771Z,15.63
2019-02-20T11:46:32.028Z,15.53
2019-02-20T11:49:01.327Z,14.80
2019-02-20T11:51:30.601Z,15.63
2019-02-20T11:53:59.764Z,16.33
2019-02-20T11:56:29.047Z,15.60
2019-02-20T11:58:58.357Z,15.20
2019-02-20T12:01:27.639Z,14.97
2019-02-20T12:03:56.806Z,16.30
2019-02-20T12:06:26.007Z,14.90
2019-02-20T12:08:55.691Z,15.07
2019-02-20T12:11:25.126Z,15.13
2019-02-20T12:13:54.395Z,16.23
2019-02-20T12:16:23.689Z,15.23
2019-02-20T12:18:52.923Z,15.97
2019-02-20T12:21:22.111Z,16.00
2019-02-20T12:23:51.340Z,15.73
2019-02-20T12:26:20.599Z,15.47
2019-02-20T12:28:50.827Z,16.70
2019-02-20T12:31:20.010Z,16.77
2019-02-20T12:33:49.235Z,15.53
2019-02-20T12:36:18.527Z,16.67
2019-02-20T12:38:47.756Z,16.17
2019-02-20T12:41:17.015Z,16.37
2019-02-20T12:43:46.173Z,16.93
2019-02-20T12:46:15.331Z,16.17
2019-02-20T12:48:44.555Z,16.57
2019-02-20T12:51:13.711Z,16.87
2019-02-20T12:53:43.650Z,17.33
2019-02-20T12:56:13.060Z,17.17
2019-02-20T12:58:42.324Z,16.80
2019-02-20T13:01:11.493Z,16.33
2019-02-20T13:03:40.833Z,17.20
2019-02-20T13:06:09.990Z,17.93
2019-02-20T13:08:39.252Z,17.13
2019-02-20T13:11:08.547Z,16.30
2019-02-20T13:13:37.752Z,17.40
2019-02-20T13:16:09.578Z,15.43
2019-02-20T13:18:37.999Z,16.23
2019-02-20T13:21:07.240Z,16.17
2019-02-20T13:23:36.514Z,15.43
2019-02-20T13:26:05.675Z,15.37
2019-02-20T13:28:34.890Z,15.77
2019-02-20T13:31:04.053Z,15.97
2019-02-20T13:33:33.251Z,15.60
2019-02-20T13:36:02.501Z,16.90
2019-02-20T13:38:31.922Z,15.93
2019-02-20T13:41:01.165Z,16.63
2019-02-20T13:43:30.831Z,16.20
2019-02-20T13:46:00.064Z,16.13
2019-02-20T13:48:29.427Z,17.27
2019-02-20T13:50:58.754Z,16.10
2019-02-20T13:53:28.051Z,15.83
2019-02-20T13:55:57.316Z,16.93
2019-02-20T13:58:26.947Z,17.47
2019-02-20T14:00:56.283Z,16.90
2019-02-20T14:03:25.591Z,16.97
2019-02-20T14:05:54.927Z,16.73
2019-02-20T14:08:24.244Z,15.73
2019-02-20T14:10:53.512Z,15.47
2019-02-20T14:13:23.234Z,17.03
2019-02-20T14:15:52.506Z,16.43
2019-02-20T14:18:21.733Z,15.83
2019-02-20T14:20:50.992Z,16.07
2019-02-20T14:23:20.259Z,16.33
2019-02-20T14:25:49.601Z,16.40
2019-02-20T14:28:18.918Z,16.73
2019-02-20T14:30:48.472Z,17.03
2019-02-20T14:33:17.700Z,17.07
2019-02-20T14:35:46.972Z,16.50
2019-02-20T14:38:16.224Z,18.23
2019-02-20T14:40:45.489Z,18.97
2019-02-20T14:43:14.802Z,18.70
2019-02-20T14:45:44.436Z,18.80
2019-02-20T14:48:13.782Z,19.73
2019-02-20T14:50:43.048Z,22.97
2019-02-20T14:53:12.355Z,22.20
2019-02-20T14:55:41.671Z,22.83
2019-02-20T14:58:10.930Z,23.47
2019-02-20T15:00:40.543Z,23.63
2019-02-20T15:03:09.880Z,22.10
2019-02-20T15:05:39.121Z,20.83
2019-02-20T15:08:08.379Z,21.80
2019-02-20T15:10:37.607Z,22.60
2019-02-20T15:13:07.012Z,21.77
2019-02-20T15:15:36.265Z,21.60
2019-02-20T15:18:06.200Z,21.60
2019-02-20T15:20:35.697Z,21.03
2019-02-20T15:23:05.059Z,21.60
2019-02-20T15:25:34.373Z,22.27
2019-02-20T15:28:04.707Z,20.50
2019-02-20T15:30:34.120Z,19.23
2019-02-20T15:33:03.649Z,18.73
2019-02-20T15:35:32.962Z,19.23
2019-02-20T15:38:02.306Z,18.33
2019-02-20T15:40:31.619Z,18.90
2019-02-20T15:43:01.631Z,18.90
2019-02-20T15:45:30.990Z,18.07
2019-02-20T15:48:00.414Z,18.40
2019-02-20T15:50:29.799Z,17.60
2019-02-20T15:52:59.103Z,18.03
2019-02-20T15:55:28.433Z,18.63
2019-02-20T15:57:57.725Z,18.30
2019-02-20T16:00:27.151Z,17.97
2019-02-20T16:02:56.759Z,17.77
2019-02-20T16:05:26.236Z,18.37
2019-02-20T16:07:55.546Z,19.47
2019-02-20T16:10:24.880Z,17.83
2019-02-20T16:12:54.123Z,19.63
2019-02-20T16:15:24.297Z,18.70
2019-02-20T16:17:54.074Z,17.53
2019-02-20T16:20:23.395Z,16.47
2019-02-20T16:22:52.699Z,16.90
2019-02-20T16:25:23.732Z,15.13
2019-02-20T16:27:52.861Z,17.67
2019-02-20T16:30:22.195Z,15.70
2019-02-20T16:32:51.427Z,18.13
2019-02-20T16:35:20.683Z,16.60
2019-02-20T16:37:49.919Z,15.93
2019-02-20T16:40:19.243Z,14.43
2019-02-20T16:42:48.479Z,16.07
2019-02-20T16:45:23.044Z,18.23
2019-02-20T16:47:52.756Z,15.30
2019-02-20T16:50:22.038Z,13.93
2019-02-20T16:52:51.393Z,14.00
2019-02-20T16:55:22.600Z,14.60
2019-02-20T16:57:56.658Z,11.63
2019-02-20T17:00:23.403Z,12.80
2019-02-20T17:02:52.958Z,12.40
2019-02-20T17:05:22.354Z,12.50
2019-02-20T17:07:51.849Z,12.70
2019-02-20T17:10:21.244Z,11.90
2019-02-20T17:12:50.515Z,13.13
2019-02-20T17:15:19.742Z,12.80
2019-02-20T17:17:49.404Z,12.33
2019-02-20T17:20:18.686Z,12.67
2019-02-20T17:22:48.025Z,12.20
2019-02-20T17:25:18.252Z,12.37
2019-02-20T17:27:47.486Z,11.10
2019-02-20T17:30:16.863Z,11.40
2019-02-20T17:32:46.969Z,11.03
2019-02-20T17:35:17.172Z,11.13
2019-02-20T17:37:46.579Z,11.10
2019-02-20T17:40:16.317Z,12.97
2019-02-20T17:42:45.660Z,11.13
2019-02-20T17:45:14.971Z,10.73
2019-02-20T17:47:44.728Z,10.57
2019-02-20T17:50:15.059Z,10.50
2019-02-20T17:52:44.340Z,10.50
2019-02-20T17:55:13.780Z,10.30
2019-02-20T17:57:43.064Z,10.80
2019-02-20T18:00:13.289Z,10.87
2019-02-20T18:02:42.550Z,10.63
2019-02-20T18:05:13.759Z,11.30
2019-02-20T18:07:50.825Z,10.67
2019-02-20T18:10:14.046Z,10.20
2019-02-20T18:12:43.285Z,12.90
2019-02-20T18:15:12.724Z,10.30
2019-02-20T18:17:41.980Z,12.30
2019-02-20T18:20:11.348Z,11.37
2019-02-20T18:22:40.651Z,14.67
2019-02-20T18:25:10.106Z,17.87
2019-02-20T18:27:39.327Z,15.50
2019-02-20T18:30:08.894Z,16.63
2019-02-20T18:32:38.200Z,14.50
2019-02-20T18:35:08.493Z,15.87
2019-02-20T18:37:37.711Z,20.03
2019-02-20T18:40:07.619Z,18.70
2019-02-20T18:42:36.888Z,22.00
2019-02-20T18:45:07.859Z,17.33
2019-02-20T18:47:37.098Z,14.17
2019-02-20T18:50:07.451Z,13.90
2019-02-20T18:52:36.683Z,15.63
2019-02-20T18:55:06.703Z,13.50
2019-02-20T18:57:35.964Z,11.27
2019-02-20T19:00:07.353Z,13.23
2019-02-20T19:02:36.525Z,10.20
2019-02-20T19:05:06.533Z,10.97
2019-02-20T19:07:35.797Z,10.57
2019-02-20T19:10:07.966Z,10.60
2019-02-20T19:12:56.084Z,10.73
2019-02-20T19:15:40.852Z,8.53
2019-02-20T19:18:47.022Z,10.03
2019-02-20T19:21:39.652Z,8.80
2019-02-20T19:24:51.712Z,10.10
2019-02-20T19:27:43.335Z,9.30
2019-02-20T19:31:11.948Z,10.70
2019-02-20T19:34:28.183Z,10.37
2019-02-20T19:37:34.286Z,9.60
2019-02-20T19:40:35.024Z,8.43
2019-02-20T19:43:38.253Z,12.00
2019-02-20T19:46:53.931Z,8.83
2019-02-20T19:50:05.851Z,10.10
2019-02-20T19:53:08.565Z,8.80
2019-02-20T19:56:31.163Z,11.50
2019-02-20T19:59:33.741Z,7.93
2019-02-20T20:02:34.249Z,9.00
2019-02-20T20:05:50.798Z,11.43
2019-02-20T20:08:54.239Z,10.93
2019-02-20T20:12:04.603Z,11.30
2019-02-20T20:14:49.984Z,10.73
2019-02-20T20:17:42.371Z,9.77
2019-02-20T20:20:24.440Z,9.93
2019-02-20T20:23:20.000Z,9.60
2019-02-20T20:26:39.907Z,8.27
2019-02-20T20:29:52.086Z,12.00
2019-02-20T20:33:00.305Z,9.07
2019-02-20T20:35:54.646Z,13.87
2019-02-20T20:38:34.996Z,10.93
2019-02-20T20:41:57.528Z,9.83
2019-02-20T20:44:57.972Z,9.07
2019-02-20T20:47:37.221Z,9.90
2019-02-20T20:50:36.303Z,9.53
2019-02-20T20:53:47.073Z,7.93
2019-02-20T20:56:57.750Z,9.00
2019-02-20T20:59:38.184Z,8.10
2019-02-20T21:02:37.449Z,10.50
2019-02-20T21:05:37.654Z,7.97
2019-02-20T21:08:39.399Z,8.77
2019-02-20T21:11:48.395Z,8.93
2019-02-20T21:14:56.805Z,8.73
2019-02-20T21:18:14.608Z,9.30
2019-02-20T21:21:10.920Z,9.27
2019-02-20T21:24:25.129Z,8.73
2019-02-20T21:27:29.937Z,8.60
2019-02-20T21:30:27.427Z,7.07
2019-02-20T21:33:51.981Z,9.00
2019-02-20T21:36:37.991Z,6.87
2019-02-20T21:39:29.637Z,8.70
2019-02-20T21:42:15.117Z,7.80
2019-02-20T21:45:06.187Z,8.83
2019-02-20T21:48:02.353Z,7.57
2019-02-20T21:51:18.627Z,9.73
2019-02-20T21:54:13.712Z,8.00
2019-02-20T21:57:33.088Z,8.53
2019-02-20T22:00:50.342Z,9.57
2019-02-20T22:04:00.491Z,8.57
2019-02-20T22:07:02.394Z,8.97
2019-02-20T22:10:07.334Z,9.37
2019-02-20T22:13:00.968Z,9.20
2019-02-20T22:15:47.991Z,9.80
2019-02-20T22:18:50.668Z,10.33
2019-02-20T22:22:16.077Z,9.93
2019-02-20T22:25:15.592Z,9.40
2019-02-20T22:28:13.128Z,9.30
2019-02-20T22:31:29.358Z,8.63
2019-02-20T22:34:54.728Z,10.97
2019-02-20T22:38:00.144Z,8.43
2019-02-20T22:40:49.081Z,10.03
2019-02-20T22:44:04.384Z,7.43
2019-02-20T22:47:21.178Z,9.13
2019-02-20T22:50:25.144Z,7.27
2019-02-20T22:53:25.432Z,9.37
2019-02-20T22:56:41.879Z,9.50
2019-02-20T22:59:26.538Z,8.87
2019-02-20T23:02:38.418Z,8.23
2019-02-20T23:05:52.061Z,9.67
2019-02-20T23:08:34.124Z,10.10
2019-02-20T23:11:36.699Z,10.73
2019-02-20T23:14:39.968Z,10.97
2019-02-20T23:17:09.268Z,10.40
2019-02-20T23:19:38.575Z,11.10
2019-02-20T23:22:07.843Z,11.73
2019-02-20T23:24:37.052Z,11.43
2019-02-20T23:27:06.332Z,11.20
2019-02-20T23:29:35.500Z,10.20
2019-02-20T23:32:04.759Z,11.50
2019-02-20T23:34:33.955Z,12.00
2019-02-20T23:37:03.246Z,9.27
2019-02-20T23:39:32.488Z,11.20
2019-02-20T23:42:01.993Z,10.20
2019-02-20T23:44:31.323Z,8.73
2019-02-20T23:47:00.547Z,9.97
2019-02-20T23:49:29.842Z,10.47
2019-02-20T23:51:59.097Z,9.40
2019-02-20T23:54:28.415Z,10.30
2019-02-20T23:56:57.634Z,10.73
2019-02-20T23:59:26.917Z,10.70
